Flight Track Log - Related Links

Times and Time Zones

All times are in EDT time to prevent confusion due to time zone crossing. See the WIG7117 flight status page for this flight to view local times or setup timezone preferences in your user account.

Time Position Orientation Groundspeed Altitude Reporting Facility
EDT Latitude Longitude Course Direction KTS MPH feet Rate Location/Type
Thu 10:24:38 PM 42.7464 -73.8142 282° West 91 105 900  Level Boston Center
Thu 10:25:38 PM 42.7522 -73.8511 282° West 109 125 1,800 942 Climbing Boston Center
Thu 10:26:39 PM 42.7600 -73.8936 284° West 115 132 2,800 942 Climbing Boston Center
Thu 10:27:39 PM 42.7658 -73.9361 281° West 118 136 3,700 893 Climbing Boston Center
Thu 10:28:40 PM 42.7733 -73.9844 282° West 118 136 4,600 934 Climbing Boston Center
Thu 10:29:41 PM 42.7811 -74.0269 284° West 117 135 5,600 934 Climbing Boston Center
Thu 10:30:42 PM 42.7889 -74.0697 284° West 116 133 6,500 942 Climbing Boston Center
Thu 10:31:42 PM 42.7967 -74.1125 284° West 113 130 7,500 744 Climbing Boston Center
Thu 10:32:43 PM 42.8022 -74.1522 281° West 112 129 8,000 246 Climbing Boston Center
Thu 10:33:44 PM 42.8119 -74.2033 285° West 135 155 8,000  Level Boston Center
Thu 10:34:44 PM 42.8175 -74.2517 279° West 131 151 8,000  Level Boston Center
Thu 10:35:46 PM 42.8289 -74.3058 286° West 128 147 8,000  Level Boston Center
Thu 10:36:58 PM 42.8364 -74.3597 281° West 129 148 8,000  Level Boston Center
Thu 10:37:53 PM 42.8442 -74.3997 285° West 129 148 8,000  Level Boston Center
Thu 10:38:53 PM 42.8514 -74.4536 280° West 130 150 8,000  Level Boston Center
Thu 10:39:54 PM 42.8589 -74.5050 281° West 131 151 8,000  Level Boston Center
Thu 10:40:55 PM 42.8686 -74.5533 285° West 135 155 8,000  Level Boston Center
Thu 10:41:55 PM 42.8739 -74.6017 278° West 132 152 8,000  Level Boston Center
Thu 10:42:56 PM 42.8833 -74.6475 286° West 130 150 8,000  Level Boston Center
Thu 10:43:57 PM 42.8906 -74.6986 281° West 133 153 8,000  Level Boston Center
Thu 10:44:57 PM 42.9003 -74.7472 285° West 133 153 8,000  Level Boston Center
Thu 10:45:58 PM 42.9075 -74.7986 281° West 132 152 8,000  Level Boston Center
Thu 10:47:02 PM 42.9147 -74.8500 281° West 134 154 8,000  Level Boston Center
Thu 10:47:59 PM 42.9242 -74.8986 285° West 135 155 8,000  Level Boston Center
Thu 10:49:00 PM 42.9333 -74.9469 285° West 135 155 8,000  Level Boston Center
Thu 10:50:00 PM 42.9408 -74.9956 282° West 137 158 8,000  Level Boston Center
Thu 10:51:01 PM 42.9478 -75.0525 279° West 136 157 8,000  Level Boston Center
Thu 10:52:02 PM 42.9592 -75.0986 289° West 133 153 8,000 -298 Level Boston Center
Thu 10:53:02 PM 42.9661 -75.1528 280° West 140 161 7,400 -803 Descending Boston Center
Thu 10:54:09 PM 42.9772 -75.2156 284° West 165 190 6,300 -945 Descending Boston Center
Thu 10:55:09 PM 42.9861 -75.2756 281° West 161 185 5,400 -614 Descending Boston Center
Thu 10:56:16 PM 42.9950 -75.3414 280° West 155 178 5,000 -188 Descending Boston Center
Thu 10:57:17 PM 43.0019 -75.3928 280° West 137 158 5,000  Level Boston Center
Thu 10:58:18 PM 43.0111 -75.4472 283° West 137 158 5,000 -50 Level Boston Center
Thu 10:59:18 PM 43.0181 -75.4986 280° West 139 160 4,900 -50 Descending Boston Center
Thu 11:00:19 PM 43.0272 -75.5447 285° West 138 159 4,900 50 Level Boston Center
Thu 11:01:19 PM 43.0358 -75.6019 282° West 136 157 5,000 52 Climbing Boston Center
Thu 11:02:14 PM 43.0389 -75.6447 276° West 137 158 5,000  Level Boston Center
Thu 11:03:15 PM 43.0478 -75.6992 283° West 138 159 5,000  Level Boston Center
Thu 11:04:15 PM 43.0761 -75.7347 317° Northwest 139 160 5,000  Level Boston Center
Thu 11:05:16 PM 43.1086 -75.7622 328° Northwest 142 163 5,000  Level Boston Center
Thu 11:06:16 PM 43.1433 -75.7867 333° Northwest 141 162 5,000 -52 Level Boston Center
Thu 11:07:11 PM 43.1758 -75.8114 331° Northwest 140 161 4,900 -517 Descending Boston Center
Thu 11:08:12 PM 43.2083 -75.8389 328° Northwest 142 163 4,000 -446 Descending Boston Center
Thu 11:09:12 PM 43.2219 -75.8794 295° West 137 158 4,000 -157 Level Boston Center
Thu 11:10:07 PM 43.1922 -75.8947 201° Southwest 163 188 3,700 -522 Descending Boston Center
Thu 11:11:07 PM 43.1511 -75.8697 156° South 176 203 3,000 -545 Descending Boston Center
Thu 11:12:08 PM 43.1133 -75.8819 193° South 150 173 2,600 -148 Descending Boston Center
Thu 11:13:09 PM 43.1158 -75.9333 274° West 128 147 2,700 -298 Climbing Boston Center
Thu 11:14:09 PM 43.1122 -75.9842 264° West 136 157 2,000 -694 Descending Boston Center
Thu 11:15:10 PM 43.1106 -76.0353 267° West 126 145 1,300 -645 Descending Boston Center
Thu 11:16:10 PM 43.1094 -76.0781 268° West 110 127 700 -600 Descending Boston Center
Thu 11:18:00 PM 43.1000 -76.1000 242° Southwest  Level FlightAware Approximate
Thu 11:25:00 PM 43.1112 -76.1063 242° Southwest  Level Estimated
Thu 11:26:00 PM 43.1112 -76.1063 242° Southwest  Level Estimated
Thu 11:27:00 PM 43.1112 -76.1063 242° Southwest  Level Estimated
Thu 11:28:00 PM 43.1112 -76.1063 242° Southwest  Level Estimated
Thu 11:29:00 PM 43.1112 -76.1063 242° Southwest  Level Estimated

Login

Don't have an account? Register now (free) for customized features, flight alerts, and more!